sensor_id;sensor_type;location;lat;lon;timestamp;P1;durP1;ratioP1;P2;durP2;ratioP2
42834;SDS011;29335;50.526;30.458;2022-07-23T00:00:14;4.60;;;2.50;;
42834;SDS011;29335;50.526;30.458;2022-07-23T00:02:41;4.07;;;2.35;;
42834;SDS011;29335;50.526;30.458;2022-07-23T00:05:06;5.53;;;2.10;;
42834;SDS011;29335;50.526;30.458;2022-07-23T00:07:32;5.72;;;2.88;;
42834;SDS011;29335;50.526;30.458;2022-07-23T00:09:58;4.55;;;2.80;;
42834;SDS011;29335;50.526;30.458;2022-07-23T00:12:24;5.05;;;2.90;;
42834;SDS011;29335;50.526;30.458;2022-07-23T00:14:49;5.75;;;2.70;;
42834;SDS011;29335;50.526;30.458;2022-07-23T00:17:15;2.53;;;2.33;;
42834;SDS011;29335;50.526;30.458;2022-07-23T00:19:41;4.35;;;2.47;;
42834;SDS011;29335;50.526;30.458;2022-07-23T00:22:06;3.58;;;3.03;;
42834;SDS011;29335;50.526;30.458;2022-07-23T00:24:32;5.45;;;3.40;;
42834;SDS011;29335;50.526;30.458;2022-07-23T00:26:57;4.80;;;2.58;;
42834;SDS011;29335;50.526;30.458;2022-07-23T00:29:23;3.88;;;2.63;;
42834;SDS011;29335;50.526;30.458;2022-07-23T00:31:48;3.97;;;3.00;;
42834;SDS011;29335;50.526;30.458;2022-07-23T00:34:14;4.50;;;2.40;;
42834;SDS011;29335;50.526;30.458;2022-07-23T00:36:40;3.80;;;2.40;;
42834;SDS011;29335;50.526;30.458;2022-07-23T00:39:06;2.58;;;2.33;;
42834;SDS011;29335;50.526;30.458;2022-07-23T00:41:32;4.50;;;2.72;;
42834;SDS011;29335;50.526;30.458;2022-07-23T00:46:47;4.18;;;2.80;;
42834;SDS011;29335;50.526;30.458;2022-07-23T00:49:17;3.50;;;3.20;;
42834;SDS011;29335;50.526;30.458;2022-07-23T00:51:44;2.78;;;2.50;;
42834;SDS011;29335;50.526;30.458;2022-07-23T00:54:09;3.17;;;2.40;;
42834;SDS011;29335;50.526;30.458;2022-07-23T00:56:35;5.10;;;2.47;;
42834;SDS011;29335;50.526;30.458;2022-07-23T00:59:01;3.55;;;2.40;;
42834;SDS011;29335;50.526;30.458;2022-07-23T01:01:27;4.05;;;2.75;;
42834;SDS011;29335;50.526;30.458;2022-07-23T01:03:53;4.20;;;3.17;;
42834;SDS011;29335;50.526;30.458;2022-07-23T01:06:18;4.43;;;2.85;;
42834;SDS011;29335;50.526;30.458;2022-07-23T01:08:44;3.88;;;3.13;;
42834;SDS011;29335;50.526;30.458;2022-07-23T01:11:10;3.30;;;3.00;;
42834;SDS011;29335;50.526;30.458;2022-07-23T01:13:40;4.03;;;3.03;;
42834;SDS011;29335;50.526;30.458;2022-07-23T01:16:07;3.95;;;2.83;;
42834;SDS011;29335;50.526;30.458;2022-07-23T01:18:32;4.70;;;3.08;;
42834;SDS011;29335;50.526;30.458;2022-07-23T01:20:58;6.13;;;2.70;;
42834;SDS011;29335;50.526;30.458;2022-07-23T01:23:24;4.68;;;3.15;;
42834;SDS011;29335;50.526;30.458;2022-07-23T01:25:53;4.32;;;2.92;;
42834;SDS011;29335;50.526;30.458;2022-07-23T01:28:19;6.30;;;3.55;;
42834;SDS011;29335;50.526;30.458;2022-07-23T01:30:47;4.28;;;3.35;;
42834;SDS011;29335;50.526;30.458;2022-07-23T01:33:13;4.18;;;3.03;;
42834;SDS011;29335;50.526;30.458;2022-07-23T01:35:39;4.60;;;2.85;;
42834;SDS011;29335;50.526;30.458;2022-07-23T01:38:05;3.60;;;2.80;;
42834;SDS011;29335;50.526;30.458;2022-07-23T01:40:30;4.45;;;3.17;;
42834;SDS011;29335;50.526;30.458;2022-07-23T01:42:56;6.00;;;2.90;;
42834;SDS011;29335;50.526;30.458;2022-07-23T01:45:21;4.25;;;3.10;;
42834;SDS011;29335;50.526;30.458;2022-07-23T01:47:47;3.08;;;2.78;;
42834;SDS011;29335;50.526;30.458;2022-07-23T01:50:14;3.47;;;2.78;;
42834;SDS011;29335;50.526;30.458;2022-07-23T01:52:40;4.60;;;3.00;;
42834;SDS011;29335;50.526;30.458;2022-07-23T01:55:06;4.85;;;3.13;;
42834;SDS011;29335;50.526;30.458;2022-07-23T01:57:32;6.38;;;3.20;;
42834;SDS011;29335;50.526;30.458;2022-07-23T01:59:58;4.15;;;3.13;;
42834;SDS011;29335;50.526;30.458;2022-07-23T02:02:24;4.32;;;3.08;;
42834;SDS011;29335;50.526;30.458;2022-07-23T02:04:49;4.15;;;3.22;;
42834;SDS011;29335;50.526;30.458;2022-07-23T02:07:15;5.53;;;3.25;;
42834;SDS011;29335;50.526;30.458;2022-07-23T02:09:41;6.88;;;3.15;;
42834;SDS011;29335;50.526;30.458;2022-07-23T02:12:07;5.47;;;2.97;;
42834;SDS011;29335;50.526;30.458;2022-07-23T02:14:32;3.58;;;3.20;;
42834;SDS011;29335;50.526;30.458;2022-07-23T02:16:58;3.85;;;3.55;;
42834;SDS011;29335;50.526;30.458;2022-07-23T02:19:24;3.95;;;3.47;;
42834;SDS011;29335;50.526;30.458;2022-07-23T02:21:49;3.35;;;3.05;;
42834;SDS011;29335;50.526;30.458;2022-07-23T02:24:15;3.47;;;3.05;;
42834;SDS011;29335;50.526;30.458;2022-07-23T02:26:41;3.72;;;3.17;;
42834;SDS011;29335;50.526;30.458;2022-07-23T02:29:06;5.88;;;3.10;;
42834;SDS011;29335;50.526;30.458;2022-07-23T02:31:32;4.00;;;2.75;;
42834;SDS011;29335;50.526;30.458;2022-07-23T02:33:58;3.75;;;3.20;;
42834;SDS011;29335;50.526;30.458;2022-07-23T02:36:24;4.45;;;2.95;;
42834;SDS011;29335;50.526;30.458;2022-07-23T02:38:50;4.22;;;3.10;;
42834;SDS011;29335;50.526;30.458;2022-07-23T02:41:15;3.85;;;3.13;;
42834;SDS011;29335;50.526;30.458;2022-07-23T02:43:41;6.28;;;3.33;;
42834;SDS011;29335;50.526;30.458;2022-07-23T02:46:06;3.47;;;2.90;;
42834;SDS011;29335;50.526;30.458;2022-07-23T02:48:32;5.60;;;3.17;;
42834;SDS011;29335;50.526;30.458;2022-07-23T02:50:58;3.92;;;2.95;;
42834;SDS011;29335;50.526;30.458;2022-07-23T02:53:23;3.35;;;2.78;;
42834;SDS011;29335;50.526;30.458;2022-07-23T02:55:49;5.22;;;3.00;;
42834;SDS011;29335;50.526;30.458;2022-07-23T02:58:15;2.80;;;2.50;;
42834;SDS011;29335;50.526;30.458;2022-07-23T03:00:41;2.55;;;2.33;;
42834;SDS011;29335;50.526;30.458;2022-07-23T03:03:06;5.32;;;2.38;;
42834;SDS011;29335;50.526;30.458;2022-07-23T03:05:33;3.65;;;2.40;;
42834;SDS011;29335;50.526;30.458;2022-07-23T03:07:59;4.68;;;2.45;;
42834;SDS011;29335;50.526;30.458;2022-07-23T03:10:25;4.05;;;2.50;;
42834;SDS011;29335;50.526;30.458;2022-07-23T03:12:50;3.15;;;2.60;;
42834;SDS011;29335;50.526;30.458;2022-07-23T03:15:16;3.22;;;2.50;;
42834;SDS011;29335;50.526;30.458;2022-07-23T03:17:41;5.18;;;2.70;;
42834;SDS011;29335;50.526;30.458;2022-07-23T03:20:07;3.65;;;2.60;;
42834;SDS011;29335;50.526;30.458;2022-07-23T03:22:33;3.90;;;2.58;;
42834;SDS011;29335;50.526;30.458;2022-07-23T03:24:59;4.13;;;3.03;;
42834;SDS011;29335;50.526;30.458;2022-07-23T03:27:25;4.38;;;2.80;;
42834;SDS011;29335;50.526;30.458;2022-07-23T03:29:53;4.00;;;2.80;;
42834;SDS011;29335;50.526;30.458;2022-07-23T03:32:21;3.83;;;3.10;;
42834;SDS011;29335;50.526;30.458;2022-07-23T03:34:47;4.40;;;3.00;;
42834;SDS011;29335;50.526;30.458;2022-07-23T03:37:13;3.92;;;3.15;;
42834;SDS011;29335;50.526;30.458;2022-07-23T03:39:39;4.22;;;2.90;;
42834;SDS011;29335;50.526;30.458;2022-07-23T03:42:05;3.35;;;2.88;;
42834;SDS011;29335;50.526;30.458;2022-07-23T03:44:31;3.60;;;2.63;;
42834;SDS011;29335;50.526;30.458;2022-07-23T03:46:57;4.30;;;2.70;;
42834;SDS011;29335;50.526;30.458;2022-07-23T03:49:22;3.22;;;2.42;;
42834;SDS011;29335;50.526;30.458;2022-07-23T03:51:48;4.00;;;2.80;;
42834;SDS011;29335;50.526;30.458;2022-07-23T03:54:13;3.90;;;2.80;;
42834;SDS011;29335;50.526;30.458;2022-07-23T03:56:39;3.10;;;2.40;;
42834;SDS011;29335;50.526;30.458;2022-07-23T03:59:05;3.75;;;2.88;;
42834;SDS011;29335;50.526;30.458;2022-07-23T04:01:30;6.00;;;3.25;;
42834;SDS011;29335;50.526;30.458;2022-07-23T04:03:56;5.00;;;3.17;;
42834;SDS011;29335;50.526;30.458;2022-07-23T04:06:22;5.00;;;3.25;;
42834;SDS011;29335;50.526;30.458;2022-07-23T04:08:47;4.88;;;3.25;;
42834;SDS011;29335;50.526;30.458;2022-07-23T04:11:13;5.63;;;2.90;;
42834;SDS011;29335;50.526;30.458;2022-07-23T04:13:39;3.63;;;3.22;;
42834;SDS011;29335;50.526;30.458;2022-07-23T04:16:05;3.42;;;3.00;;
42834;SDS011;29335;50.526;30.458;2022-07-23T04:18:31;6.00;;;3.30;;
42834;SDS011;29335;50.526;30.458;2022-07-23T04:20:57;3.33;;;3.03;;
42834;SDS011;29335;50.526;30.458;2022-07-23T04:23:22;4.03;;;2.83;;
42834;SDS011;29335;50.526;30.458;2022-07-23T04:25:48;5.90;;;3.15;;
42834;SDS011;29335;50.526;30.458;2022-07-23T04:28:14;6.28;;;3.38;;
42834;SDS011;29335;50.526;30.458;2022-07-23T04:30:39;4.00;;;3.40;;
42834;SDS011;29335;50.526;30.458;2022-07-23T04:33:05;5.47;;;3.53;;
42834;SDS011;29335;50.526;30.458;2022-07-23T04:35:32;6.68;;;3.63;;
42834;SDS011;29335;50.526;30.458;2022-07-23T04:37:58;4.03;;;3.50;;
42834;SDS011;29335;50.526;30.458;2022-07-23T04:40:24;4.57;;;3.60;;
42834;SDS011;29335;50.526;30.458;2022-07-23T04:42:50;4.97;;;3.78;;
42834;SDS011;29335;50.526;30.458;2022-07-23T04:45:16;4.20;;;3.67;;
42834;SDS011;29335;50.526;30.458;2022-07-23T04:47:41;4.00;;;3.35;;
42834;SDS011;29335;50.526;30.458;2022-07-23T04:50:07;4.28;;;3.17;;
42834;SDS011;29335;50.526;30.458;2022-07-23T04:52:33;3.85;;;3.10;;
42834;SDS011;29335;50.526;30.458;2022-07-23T04:54:58;4.65;;;3.10;;
42834;SDS011;29335;50.526;30.458;2022-07-23T04:57:24;3.60;;;3.10;;
42834;SDS011;29335;50.526;30.458;2022-07-23T04:59:49;4.47;;;3.60;;
42834;SDS011;29335;50.526;30.458;2022-07-23T05:02:15;5.00;;;2.97;;
42834;SDS011;29335;50.526;30.458;2022-07-23T05:04:41;5.65;;;3.50;;
42834;SDS011;29335;50.526;30.458;2022-07-23T05:07:07;4.60;;;3.00;;
42834;SDS011;29335;50.526;30.458;2022-07-23T05:09:32;4.45;;;3.17;;
42834;SDS011;29335;50.526;30.458;2022-07-23T05:11:59;3.92;;;2.70;;
42834;SDS011;29335;50.526;30.458;2022-07-23T05:14:25;2.50;;;1.42;;
42834;SDS011;29335;50.526;30.458;2022-07-23T05:16:50;5.65;;;1.80;;
42834;SDS011;29335;50.526;30.458;2022-07-23T05:19:16;5.65;;;2.03;;
42834;SDS011;29335;50.526;30.458;2022-07-23T05:21:41;3.85;;;2.03;;
42834;SDS011;29335;50.526;30.458;2022-07-23T05:24:07;2.75;;;1.70;;
42834;SDS011;29335;50.526;30.458;2022-07-23T05:26:33;2.78;;;2.20;;
42834;SDS011;29335;50.526;30.458;2022-07-23T05:28:58;4.65;;;1.90;;
42834;SDS011;29335;50.526;30.458;2022-07-23T05:31:24;8.15;;;2.10;;
42834;SDS011;29335;50.526;30.458;2022-07-23T05:33:50;5.30;;;2.10;;
42834;SDS011;29335;50.526;30.458;2022-07-23T05:36:15;3.42;;;2.22;;
42834;SDS011;29335;50.526;30.458;2022-07-23T05:38:41;3.28;;;2.10;;
42834;SDS011;29335;50.526;30.458;2022-07-23T05:41:06;5.80;;;2.10;;
42834;SDS011;29335;50.526;30.458;2022-07-23T05:43:32;3.55;;;2.20;;
42834;SDS011;29335;50.526;30.458;2022-07-23T05:45:58;2.95;;;1.65;;
42834;SDS011;29335;50.526;30.458;2022-07-23T05:48:23;3.20;;;1.75;;
42834;SDS011;29335;50.526;30.458;2022-07-23T05:50:49;2.03;;;1.75;;
42834;SDS011;29335;50.526;30.458;2022-07-23T05:53:14;3.15;;;1.70;;
42834;SDS011;29335;50.526;30.458;2022-07-23T05:55:40;2.50;;;1.80;;
42834;SDS011;29335;50.526;30.458;2022-07-23T05:58:06;3.67;;;2.10;;
42834;SDS011;29335;50.526;30.458;2022-07-23T06:00:31;9.25;;;2.10;;
42834;SDS011;29335;50.526;30.458;2022-07-23T06:02:57;5.05;;;1.92;;
42834;SDS011;29335;50.526;30.458;2022-07-23T06:05:23;3.13;;;1.30;;
42834;SDS011;29335;50.526;30.458;2022-07-23T06:07:49;6.22;;;1.80;;
42834;SDS011;29335;50.526;30.458;2022-07-23T06:10:14;3.88;;;2.03;;
42834;SDS011;29335;50.526;30.458;2022-07-23T06:12:40;2.47;;;1.50;;
42834;SDS011;29335;50.526;30.458;2022-07-23T06:15:07;5.68;;;1.90;;
42834;SDS011;29335;50.526;30.458;2022-07-23T06:17:34;3.50;;;2.00;;
42834;SDS011;29335;50.526;30.458;2022-07-23T06:19:59;2.45;;;1.75;;
42834;SDS011;29335;50.526;30.458;2022-07-23T06:22:25;3.58;;;2.03;;
42834;SDS011;29335;50.526;30.458;2022-07-23T06:24:50;3.28;;;2.20;;
42834;SDS011;29335;50.526;30.458;2022-07-23T06:27:16;2.65;;;1.65;;
42834;SDS011;29335;50.526;30.458;2022-07-23T06:29:42;3.65;;;1.73;;
42834;SDS011;29335;50.526;30.458;2022-07-23T06:32:08;6.18;;;2.00;;
42834;SDS011;29335;50.526;30.458;2022-07-23T06:34:34;2.25;;;1.83;;
42834;SDS011;29335;50.526;30.458;2022-07-23T06:37:00;2.97;;;1.58;;
42834;SDS011;29335;50.526;30.458;2022-07-23T06:39:25;3.60;;;1.90;;
42834;SDS011;29335;50.526;30.458;2022-07-23T06:41:51;4.70;;;1.90;;
42834;SDS011;29335;50.526;30.458;2022-07-23T06:44:17;3.05;;;1.75;;
42834;SDS011;29335;50.526;30.458;2022-07-23T06:46:43;3.15;;;1.80;;
42834;SDS011;29335;50.526;30.458;2022-07-23T06:49:09;3.92;;;1.67;;
42834;SDS011;29335;50.526;30.458;2022-07-23T06:51:34;4.63;;;2.08;;
42834;SDS011;29335;50.526;30.458;2022-07-23T06:54:00;2.22;;;1.50;;
42834;SDS011;29335;50.526;30.458;2022-07-23T06:56:26;3.38;;;2.60;;
42834;SDS011;29335;50.526;30.458;2022-07-23T06:58:52;3.25;;;1.80;;
42834;SDS011;29335;50.526;30.458;2022-07-23T07:01:17;2.75;;;1.90;;
42834;SDS011;29335;50.526;30.458;2022-07-23T07:03:43;2.90;;;1.90;;
42834;SDS011;29335;50.526;30.458;2022-07-23T07:06:09;2.30;;;1.80;;
42834;SDS011;29335;50.526;30.458;2022-07-23T07:08:35;3.42;;;1.90;;
42834;SDS011;29335;50.526;30.458;2022-07-23T07:11:01;3.05;;;2.10;;
42834;SDS011;29335;50.526;30.458;2022-07-23T07:13:26;4.13;;;2.00;;
42834;SDS011;29335;50.526;30.458;2022-07-23T07:15:52;3.90;;;1.70;;
42834;SDS011;29335;50.526;30.458;2022-07-23T07:18:17;3.30;;;1.88;;
42834;SDS011;29335;50.526;30.458;2022-07-23T07:20:43;4.75;;;1.65;;
42834;SDS011;29335;50.526;30.458;2022-07-23T07:23:09;6.00;;;2.47;;
42834;SDS011;29335;50.526;30.458;2022-07-23T07:25:34;2.65;;;2.00;;
42834;SDS011;29335;50.526;30.458;2022-07-23T07:28:00;2.65;;;1.75;;
42834;SDS011;29335;50.526;30.458;2022-07-23T07:30:25;2.17;;;1.58;;
42834;SDS011;29335;50.526;30.458;2022-07-23T07:32:51;2.78;;;1.80;;
42834;SDS011;29335;50.526;30.458;2022-07-23T07:35:17;4.70;;;1.70;;
42834;SDS011;29335;50.526;30.458;2022-07-23T07:37:43;2.72;;;1.77;;
42834;SDS011;29335;50.526;30.458;2022-07-23T07:40:08;3.70;;;1.58;;
42834;SDS011;29335;50.526;30.458;2022-07-23T07:42:34;3.58;;;1.90;;
42834;SDS011;29335;50.526;30.458;2022-07-23T07:45:08;5.95;;;2.03;;
42834;SDS011;29335;50.526;30.458;2022-07-23T07:47:34;3.35;;;1.83;;
42834;SDS011;29335;50.526;30.458;2022-07-23T07:49:59;3.00;;;1.60;;
42834;SDS011;29335;50.526;30.458;2022-07-23T07:52:25;3.65;;;1.88;;
42834;SDS011;29335;50.526;30.458;2022-07-23T07:54:51;2.83;;;1.88;;
42834;SDS011;29335;50.526;30.458;2022-07-23T07:57:17;3.78;;;2.00;;
42834;SDS011;29335;50.526;30.458;2022-07-23T07:59:42;4.97;;;2.00;;
42834;SDS011;29335;50.526;30.458;2022-07-23T08:02:08;3.05;;;1.80;;
42834;SDS011;29335;50.526;30.458;2022-07-23T08:04:33;4.32;;;1.88;;
42834;SDS011;29335;50.526;30.458;2022-07-23T08:06:59;3.00;;;1.70;;
42834;SDS011;29335;50.526;30.458;2022-07-23T08:09:24;4.35;;;1.70;;
42834;SDS011;29335;50.526;30.458;2022-07-23T08:11:50;2.15;;;1.50;;
42834;SDS011;29335;50.526;30.458;2022-07-23T08:14:16;2.08;;;1.48;;
42834;SDS011;29335;50.526;30.458;2022-07-23T08:16:43;2.80;;;1.90;;
42834;SDS011;29335;50.526;30.458;2022-07-23T08:19:08;2.80;;;1.88;;
42834;SDS011;29335;50.526;30.458;2022-07-23T08:21:34;3.47;;;1.70;;
42834;SDS011;29335;50.526;30.458;2022-07-23T08:23:59;2.95;;;1.80;;
42834;SDS011;29335;50.526;30.458;2022-07-23T08:26:25;4.05;;;1.83;;
42834;SDS011;29335;50.526;30.458;2022-07-23T08:28:51;3.40;;;1.60;;
42834;SDS011;29335;50.526;30.458;2022-07-23T08:31:16;3.03;;;1.75;;
42834;SDS011;29335;50.526;30.458;2022-07-23T08:33:43;2.05;;;1.67;;
42834;SDS011;29335;50.526;30.458;2022-07-23T08:36:09;2.63;;;1.70;;
42834;SDS011;29335;50.526;30.458;2022-07-23T08:38:34;3.80;;;2.00;;
42834;SDS011;29335;50.526;30.458;2022-07-23T08:41:00;4.03;;;1.83;;
42834;SDS011;29335;50.526;30.458;2022-07-23T08:43:27;4.38;;;1.85;;
42834;SDS011;29335;50.526;30.458;2022-07-23T08:45:55;4.35;;;1.63;;
42834;SDS011;29335;50.526;30.458;2022-07-23T08:48:25;2.47;;;1.55;;
42834;SDS011;29335;50.526;30.458;2022-07-23T08:53:21;4.30;;;1.63;;
42834;SDS011;29335;50.526;30.458;2022-07-23T08:55:48;3.60;;;1.50;;
42834;SDS011;29335;50.526;30.458;2022-07-23T08:58:19;7.82;;;1.80;;
42834;SDS011;29335;50.526;30.458;2022-07-23T09:00:45;3.08;;;1.30;;
42834;SDS011;29335;50.526;30.458;2022-07-23T09:03:15;2.33;;;1.45;;
42834;SDS011;29335;50.526;30.458;2022-07-23T09:05:51;4.35;;;1.30;;
42834;SDS011;29335;50.526;30.458;2022-07-23T09:08:18;2.20;;;1.40;;
42834;SDS011;29335;50.526;30.458;2022-07-23T09:10:56;3.42;;;1.50;;
42834;SDS011;29335;50.526;30.458;2022-07-23T09:16:15;2.35;;;1.50;;
42834;SDS011;29335;50.526;30.458;2022-07-23T09:18:42;2.20;;;1.17;;
42834;SDS011;29335;50.526;30.458;2022-07-23T09:21:10;3.92;;;1.65;;
42834;SDS011;29335;50.526;30.458;2022-07-23T09:23:46;2.63;;;1.50;;
42834;SDS011;29335;50.526;30.458;2022-07-23T09:34:10;2.00;;;1.13;;
42834;SDS011;29335;50.526;30.458;2022-07-23T09:36:37;4.15;;;1.38;;
42834;SDS011;29335;50.526;30.458;2022-07-23T09:39:03;2.97;;;1.40;;
42834;SDS011;29335;50.526;30.458;2022-07-23T09:41:45;6.97;;;1.40;;
42834;SDS011;29335;50.526;30.458;2022-07-23T09:44:12;6.03;;;1.42;;
42834;SDS011;29335;50.526;30.458;2022-07-23T09:46:41;1.77;;;1.30;;
42834;SDS011;29335;50.526;30.458;2022-07-23T09:49:26;4.47;;;1.60;;
42834;SDS011;29335;50.526;30.458;2022-07-23T09:51:55;4.13;;;1.50;;
42834;SDS011;29335;50.526;30.458;2022-07-23T09:56:52;2.88;;;1.52;;
42834;SDS011;29335;50.526;30.458;2022-07-23T09:59:18;4.50;;;1.27;;
42834;SDS011;29335;50.526;30.458;2022-07-23T10:01:48;2.28;;;1.45;;
42834;SDS011;29335;50.526;30.458;2022-07-23T10:04:15;2.20;;;1.27;;
42834;SDS011;29335;50.526;30.458;2022-07-23T10:06:41;1.90;;;1.13;;
42834;SDS011;29335;50.526;30.458;2022-07-23T10:09:10;2.78;;;1.30;;
42834;SDS011;29335;50.526;30.458;2022-07-23T10:11:37;1.77;;;1.10;;
42834;SDS011;29335;50.526;30.458;2022-07-23T10:14:03;3.65;;;1.38;;
42834;SDS011;29335;50.526;30.458;2022-07-23T10:16:30;1.98;;;1.20;;
42834;SDS011;29335;50.526;30.458;2022-07-23T10:18:56;6.22;;;2.70;;
42834;SDS011;29335;50.526;30.458;2022-07-23T10:21:27;2.67;;;1.35;;
42834;SDS011;29335;50.526;30.458;2022-07-23T10:30:04;2.10;;;1.20;;
42834;SDS011;29335;50.526;30.458;2022-07-23T10:32:40;2.17;;;1.30;;
42834;SDS011;29335;50.526;30.458;2022-07-23T10:36:18;2.88;;;1.35;;
42834;SDS011;29335;50.526;30.458;2022-07-23T10:43:25;5.75;;;2.20;;
42834;SDS011;29335;50.526;30.458;2022-07-23T10:45:51;1.92;;;1.25;;
42834;SDS011;29335;50.526;30.458;2022-07-23T10:48:18;2.95;;;1.45;;
42834;SDS011;29335;50.526;30.458;2022-07-23T10:56:15;2.03;;;1.33;;
42834;SDS011;29335;50.526;30.458;2022-07-23T10:58:45;2.70;;;1.50;;
42834;SDS011;29335;50.526;30.458;2022-07-23T11:03:58;3.05;;;1.20;;
42834;SDS011;29335;50.526;30.458;2022-07-23T11:06:24;2.65;;;1.10;;
42834;SDS011;29335;50.526;30.458;2022-07-23T11:09:28;1.50;;;1.20;;
42834;SDS011;29335;50.526;30.458;2022-07-23T11:15:11;2.38;;;1.38;;
42834;SDS011;29335;50.526;30.458;2022-07-23T11:17:39;2.38;;;1.45;;
42834;SDS011;29335;50.526;30.458;2022-07-23T11:20:27;2.63;;;1.20;;
42834;SDS011;29335;50.526;30.458;2022-07-23T11:22:56;3.65;;;1.35;;
42834;SDS011;29335;50.526;30.458;2022-07-23T11:27:53;2.58;;;1.50;;
42834;SDS011;29335;50.526;30.458;2022-07-23T11:32:52;5.38;;;1.80;;
42834;SDS011;29335;50.526;30.458;2022-07-23T11:35:42;3.60;;;1.30;;
42834;SDS011;29335;50.526;30.458;2022-07-23T11:38:16;2.53;;;1.30;;
42834;SDS011;29335;50.526;30.458;2022-07-23T11:40:44;2.78;;;1.40;;
42834;SDS011;29335;50.526;30.458;2022-07-23T11:43:13;3.53;;;1.40;;
42834;SDS011;29335;50.526;30.458;2022-07-23T11:45:43;2.53;;;1.50;;
42834;SDS011;29335;50.526;30.458;2022-07-23T11:48:17;2.15;;;1.23;;
42834;SDS011;29335;50.526;30.458;2022-07-23T11:50:48;3.78;;;1.42;;
42834;SDS011;29335;50.526;30.458;2022-07-23T11:53:21;2.63;;;1.33;;
42834;SDS011;29335;50.526;30.458;2022-07-23T11:55:48;2.40;;;1.70;;
42834;SDS011;29335;50.526;30.458;2022-07-23T11:58:14;4.00;;;1.52;;
42834;SDS011;29335;50.526;30.458;2022-07-23T12:00:40;2.72;;;1.45;;
42834;SDS011;29335;50.526;30.458;2022-07-23T12:03:06;4.05;;;1.63;;
42834;SDS011;29335;50.526;30.458;2022-07-23T12:05:33;1.80;;;1.40;;
42834;SDS011;29335;50.526;30.458;2022-07-23T12:08:02;2.70;;;1.40;;
42834;SDS011;29335;50.526;30.458;2022-07-23T12:13:06;3.15;;;1.30;;
42834;SDS011;29335;50.526;30.458;2022-07-23T12:15:56;3.75;;;1.38;;
42834;SDS011;29335;50.526;30.458;2022-07-23T12:18:23;2.25;;;1.35;;
42834;SDS011;29335;50.526;30.458;2022-07-23T12:20:53;2.92;;;1.50;;
42834;SDS011;29335;50.526;30.458;2022-07-23T12:23:22;2.97;;;1.40;;
42834;SDS011;29335;50.526;30.458;2022-07-23T12:25:49;2.00;;;1.27;;
42834;SDS011;29335;50.526;30.458;2022-07-23T12:28:18;3.17;;;1.60;;
42834;SDS011;29335;50.526;30.458;2022-07-23T12:30:52;2.72;;;1.60;;
42834;SDS011;29335;50.526;30.458;2022-07-23T12:33:29;4.68;;;1.60;;
42834;SDS011;29335;50.526;30.458;2022-07-23T12:36:00;5.30;;;1.50;;
42834;SDS011;29335;50.526;30.458;2022-07-23T12:38:35;2.28;;;1.13;;
42834;SDS011;29335;50.526;30.458;2022-07-23T12:41:03;2.55;;;1.50;;
42834;SDS011;29335;50.526;30.458;2022-07-23T12:43:33;2.00;;;1.50;;
42834;SDS011;29335;50.526;30.458;2022-07-23T12:46:03;5.63;;;1.40;;
42834;SDS011;29335;50.526;30.458;2022-07-23T12:48:31;1.55;;;1.27;;
42834;SDS011;29335;50.526;30.458;2022-07-23T12:51:02;2.35;;;1.60;;
42834;SDS011;29335;50.526;30.458;2022-07-23T12:53:30;2.03;;;1.30;;
42834;SDS011;29335;50.526;30.458;2022-07-23T12:56:06;1.75;;;1.40;;
42834;SDS011;29335;50.526;30.458;2022-07-23T13:06:35;3.20;;;1.48;;
42834;SDS011;29335;50.526;30.458;2022-07-23T13:09:03;1.75;;;1.42;;
42834;SDS011;29335;50.526;30.458;2022-07-23T13:11:30;2.88;;;1.35;;
42834;SDS011;29335;50.526;30.458;2022-07-23T13:13:56;2.85;;;1.08;;
42834;SDS011;29335;50.526;30.458;2022-07-23T13:16:22;3.65;;;1.80;;
42834;SDS011;29335;50.526;30.458;2022-07-23T13:18:48;2.97;;;1.77;;
42834;SDS011;29335;50.526;30.458;2022-07-23T13:21:13;3.50;;;1.50;;
42834;SDS011;29335;50.526;30.458;2022-07-23T13:23:39;7.78;;;1.58;;
42834;SDS011;29335;50.526;30.458;2022-07-23T13:26:05;3.92;;;1.40;;
42834;SDS011;29335;50.526;30.458;2022-07-23T13:28:30;3.05;;;1.55;;
42834;SDS011;29335;50.526;30.458;2022-07-23T13:30:56;3.60;;;1.50;;
42834;SDS011;29335;50.526;30.458;2022-07-23T13:33:23;4.30;;;1.30;;
42834;SDS011;29335;50.526;30.458;2022-07-23T13:35:49;1.77;;;1.25;;
42834;SDS011;29335;50.526;30.458;2022-07-23T13:38:16;4.32;;;1.42;;
42834;SDS011;29335;50.526;30.458;2022-07-23T13:40:44;4.63;;;1.60;;
42834;SDS011;29335;50.526;30.458;2022-07-23T13:43:12;3.08;;;1.45;;
42834;SDS011;29335;50.526;30.458;2022-07-23T13:45:40;4.30;;;1.45;;
42834;SDS011;29335;50.526;30.458;2022-07-23T13:48:10;3.15;;;1.60;;
42834;SDS011;29335;50.526;30.458;2022-07-23T13:50:37;2.85;;;1.48;;
42834;SDS011;29335;50.526;30.458;2022-07-23T13:53:04;3.80;;;1.27;;
42834;SDS011;29335;50.526;30.458;2022-07-23T13:55:32;3.15;;;1.25;;
42834;SDS011;29335;50.526;30.458;2022-07-23T13:57:58;3.92;;;1.60;;
42834;SDS011;29335;50.526;30.458;2022-07-23T14:00:25;3.63;;;1.70;;
42834;SDS011;29335;50.526;30.458;2022-07-23T14:02:51;3.17;;;1.30;;
42834;SDS011;29335;50.526;30.458;2022-07-23T14:05:17;3.70;;;1.80;;
42834;SDS011;29335;50.526;30.458;2022-07-23T14:07:43;1.90;;;1.40;;
42834;SDS011;29335;50.526;30.458;2022-07-23T14:10:09;3.10;;;1.52;;
42834;SDS011;29335;50.526;30.458;2022-07-23T14:12:35;3.30;;;1.77;;
42834;SDS011;29335;50.526;30.458;2022-07-23T14:15:02;4.55;;;1.77;;
42834;SDS011;29335;50.526;30.458;2022-07-23T14:17:29;1.88;;;1.40;;
42834;SDS011;29335;50.526;30.458;2022-07-23T14:19:56;2.97;;;1.50;;
42834;SDS011;29335;50.526;30.458;2022-07-23T14:22:22;4.07;;;1.70;;
42834;SDS011;29335;50.526;30.458;2022-07-23T14:24:48;2.78;;;1.40;;
42834;SDS011;29335;50.526;30.458;2022-07-23T14:27:14;4.22;;;1.50;;
42834;SDS011;29335;50.526;30.458;2022-07-23T14:29:39;3.88;;;1.58;;
42834;SDS011;29335;50.526;30.458;2022-07-23T14:32:05;2.80;;;1.70;;
42834;SDS011;29335;50.526;30.458;2022-07-23T14:34:31;2.10;;;1.33;;
42834;SDS011;29335;50.526;30.458;2022-07-23T14:36:57;1.90;;;1.30;;
42834;SDS011;29335;50.526;30.458;2022-07-23T14:39:23;2.60;;;1.40;;
42834;SDS011;29335;50.526;30.458;2022-07-23T14:41:49;2.17;;;1.27;;
42834;SDS011;29335;50.526;30.458;2022-07-23T14:44:14;1.58;;;1.23;;
42834;SDS011;29335;50.526;30.458;2022-07-23T14:46:40;4.15;;;1.15;;
42834;SDS011;29335;50.526;30.458;2022-07-23T14:49:05;2.58;;;1.23;;
42834;SDS011;29335;50.526;30.458;2022-07-23T14:51:31;3.60;;;2.30;;
42834;SDS011;29335;50.526;30.458;2022-07-23T14:53:57;2.85;;;1.88;;
42834;SDS011;29335;50.526;30.458;2022-07-23T14:56:23;2.45;;;1.38;;
42834;SDS011;29335;50.526;30.458;2022-07-23T14:58:49;5.22;;;1.35;;
42834;SDS011;29335;50.526;30.458;2022-07-23T15:01:14;6.47;;;1.25;;
42834;SDS011;29335;50.526;30.458;2022-07-23T15:03:40;3.00;;;1.38;;
42834;SDS011;29335;50.526;30.458;2022-07-23T15:06:06;6.55;;;1.50;;
42834;SDS011;29335;50.526;30.458;2022-07-23T15:08:32;3.55;;;1.42;;
42834;SDS011;29335;50.526;30.458;2022-07-23T15:10:58;3.95;;;1.40;;
42834;SDS011;29335;50.526;30.458;2022-07-23T15:13:24;2.08;;;1.30;;
42834;SDS011;29335;50.526;30.458;2022-07-23T15:15:49;3.08;;;1.85;;
42834;SDS011;29335;50.526;30.458;2022-07-23T15:18:15;4.15;;;1.40;;
42834;SDS011;29335;50.526;30.458;2022-07-23T15:20:41;2.05;;;1.30;;
42834;SDS011;29335;50.526;30.458;2022-07-23T15:23:07;3.13;;;1.38;;
42834;SDS011;29335;50.526;30.458;2022-07-23T15:25:32;3.17;;;1.35;;
42834;SDS011;29335;50.526;30.458;2022-07-23T15:27:58;2.55;;;1.50;;